Impacts TAF Board INFO
FOR SITUATIONAL AWARENESS. NOT TO BE USED FOR FLIGHT PLANNING PURPOSES.
IDs:

KMEM - Memphis Intl, TN, US

Issued at 1459 UTC 28 Jun 2017
Updated at 1544 UTC 28 Jun 2017
Potential Impact None Slight Moderate High
Time1454Z 28/16Z 28/17Z 28/18Z 28/19Z 28/20Z 28/21Z 28/22Z 28/23Z 29/00Z 29/01Z 29/02Z 29/03Z 29/04Z>>
Type OBS PRVL PRVL PRVL PRVL PRVL PRVL PRVL PRVL PRVL PRVL PRVL PRVL PRVL
VIS 10 >6 >6 >6 >6 >6 >6 >6 >6 >6 >6 >6 >6 >6
CIG -- -- -- -- -- -- -- -- -- -- -- -- -- --
Cover FEW FEW FEW FEW FEW FEW FEW FEW FEW SKC SKC SKC SKC SKC
FltCat VFR VFR VFR VFR VFR VFR VFR VFR VFR VFR VFR VFR VFR VFR
WX -- -- -- -- -- -- -- -- -- -- -- -- -- --
WDir 160 160 160 160 160 160 160 160 160 170 170 170 170 170
WSpd 8 8 8 8 8 8 8 8 8 8 8 8 8 8
WGst -- -- -- -- -- -- -- -- -- -- -- -- -- --

Raw TAF
KMEM 281459Z 2815/2912 16008KT P6SM FEW250
  FM290000 17008KT P6SM SKC
  FM291000 18008KT P6SM BKN035
  TEMPO 2910/2912 BKN025


Raw METAR
KMEM 281454Z 16008KT 10SM FEW250 28/18 A3008 RMK AO2 SLP181 T02780183 50004
KMEM 281354Z 17009KT 10SM FEW250 26/18 A3008 RMK AO2 SLP181 T02610183
KMEM 281254Z 17009KT 10SM FEW250 24/17 A3007 RMK AO2 SLP177 T02390172

METAR Board
Radar Display
Forecast Discussion

FOR SITUATIONAL AWARENESS. NOT TO BE USED FOR FLIGHT PLANNING PURPOSES.

Page loaded:  15:44 UTC  |   08:44 AM Pacific  |   09:44 AM Mountain  |   10:44 AM Central  |   11:44 AM Eastern

 

ADVISORIES

FORECASTS

FORECASTS

OBSERVATIONS

USER TOOLS

ABOUT US